Time;durP1;ratioP1;P1;durP2;ratioP2;P2;SDS_P1;SDS_P2;PMS_P1;PMS_P2;Temp;Humidity;BMP_temperature;BMP_pressure;BME280_temperature;BME280_humidity;BME280_pressure;Samples;Min_cycle;Max_cycle;Signal;HPM_P1;HPM_P2
2022/11/13 00:01:43;;;;;;;44.17;33.40;;;;;;;;;;5008925;28;20044;-73
2022/11/13 00:04:09;;;;;;;47.25;33.00;;;;;;;;;;4999694;28;20091;-73
2022/11/13 00:06:36;;;;;;;45.45;34.40;;;;;;;;;;4995850;28;20040;-73
2022/11/13 00:09:02;;;;;;;44.53;32.22;;;;;;;;;;5012287;28;20132;-73
2022/11/13 00:11:28;;;;;;;43.42;32.53;;;;;;;;;;5024783;28;20033;-73
2022/11/13 00:13:54;;;;;;;42.53;31.58;;;;;;;;;;5014136;28;20583;-73
2022/11/13 00:16:20;;;;;;;40.83;31.90;;;;;;;;;;5034650;28;20033;-73
2022/11/13 00:18:47;;;;;;;46.72;34.45;;;;;;;;;;5036750;28;20036;-73
2022/11/13 00:21:15;;;;;;;43.55;33.15;;;;;;;;;;5029621;28;20575;-72
2022/11/13 00:23:41;;;;;;;49.25;33.97;;;;;;;;;;5009998;28;20048;-74
2022/11/13 00:26:09;;;;;;;48.25;32.97;;;;;;;;;;4993956;28;20075;-73
2022/11/13 00:28:35;;;;;;;50.33;33.38;;;;;;;;;;4995055;28;20056;-73
2022/11/13 00:31:02;;;;;;;47.63;33.28;;;;;;;;;;5024079;28;20040;-74
2022/11/13 00:33:28;;;;;;;46.50;34.40;;;;;;;;;;5015187;28;20116;-74
2022/11/13 00:36:00;;;;;;;48.55;34.33;;;;;;;;;;5029721;28;20049;-74
2022/11/13 00:38:27;;;;;;;52.33;34.38;;;;;;;;;;5021917;28;20051;-74
2022/11/13 00:40:53;;;;;;;46.70;34.63;;;;;;;;;;5032322;28;20143;-73
2022/11/13 00:43:19;;;;;;;48.08;32.92;;;;;;;;;;5008643;28;20096;-74
2022/11/13 00:45:45;;;;;;;56.78;40.10;;;;;;;;;;5009549;28;20045;-74
2022/11/13 00:48:11;;;;;;;58.42;39.28;;;;;;;;;;5008685;28;20048;-74
2022/11/13 00:50:37;;;;;;;54.72;37.10;;;;;;;;;;4989896;28;20045;-74
2022/11/13 00:53:03;;;;;;;52.92;35.95;;;;;;;;;;5006855;28;20048;-74
2022/11/13 00:55:29;;;;;;;46.55;35.78;;;;;;;;;;4982802;28;21751;-74
2022/11/13 00:57:55;;;;;;;50.63;36.15;;;;;;;;;;5012625;28;20899;-74
2022/11/13 01:00:21;;;;;;;49.33;35.67;;;;;;;;;;4992307;28;20443;-74
2022/11/13 01:02:47;;;;;;;48.42;35.60;;;;;;;;;;5015288;28;20033;-74
2022/11/13 01:05:14;;;;;;;55.70;37.08;;;;;;;;;;4994748;28;20057;-74
2022/11/13 01:07:40;;;;;;;50.70;35.97;;;;;;;;;;4997879;28;20049;-74
2022/11/13 01:10:07;;;;;;;53.88;38.10;;;;;;;;;;4996918;28;20080;-74
2022/11/13 01:12:33;;;;;;;51.97;36.88;;;;;;;;;;4992941;28;20167;-74
2022/11/13 01:15:00;;;;;;;52.90;38.08;;;;;;;;;;5009664;28;20045;-74
2022/11/13 01:17:26;;;;;;;51.45;38.38;;;;;;;;;;5010607;28;20657;-74
2022/11/13 01:19:52;;;;;;;55.63;39.28;;;;;;;;;;5014237;28;20059;-74
2022/11/13 01:22:18;;;;;;;52.28;38.65;;;;;;;;;;4999177;28;20059;-74
2022/11/13 01:24:44;;;;;;;57.60;41.03;;;;;;;;;;4994237;28;20118;-74
2022/11/13 01:27:12;;;;;;;51.47;39.28;;;;;;;;;;5015264;28;20049;-74
2022/11/13 01:29:38;;;;;;;55.63;38.88;;;;;;;;;;4994096;28;20758;-74
2022/11/13 01:32:04;;;;;;;54.33;40.70;;;;;;;;;;4993418;28;20032;-74
2022/11/13 01:34:30;;;;;;;49.33;38.20;;;;;;;;;;5010121;28;20064;-74
2022/11/13 01:36:56;;;;;;;58.40;37.60;;;;;;;;;;5013976;28;20061;-74
2022/11/13 01:39:22;;;;;;;45.15;35.78;;;;;;;;;;5016230;28;20063;-74
2022/11/13 01:41:48;;;;;;;47.95;35.08;;;;;;;;;;4994776;28;20072;-74
2022/11/13 01:44:16;;;;;;;46.17;34.72;;;;;;;;;;5009364;28;20045;-73
2022/11/13 01:46:45;;;;;;;40.35;31.75;;;;;;;;;;4984432;28;20110;-74
2022/11/13 01:49:11;;;;;;;38.22;30.88;;;;;;;;;;5013037;28;21217;-71
2022/11/13 01:51:46;;;;;;;39.17;30.35;;;;;;;;;;5014551;28;20531;-73
2022/11/13 01:54:15;;;;;;;38.45;29.13;;;;;;;;;;4993828;28;20040;-73
2022/11/13 01:56:41;;;;;;;36.20;27.65;;;;;;;;;;5011291;28;20056;-73
2022/11/13 01:59:16;;;;;;;35.42;27.02;;;;;;;;;;5010474;28;20041;-73
2022/11/13 02:01:43;;;;;;;37.03;28.33;;;;;;;;;;5017754;28;20052;-73
2022/11/13 02:04:09;;;;;;;37.47;28.13;;;;;;;;;;5054004;28;20104;-73
2022/11/13 02:06:38;;;;;;;35.00;26.80;;;;;;;;;;5017605;28;20119;-74
2022/11/13 02:09:04;;;;;;;31.15;25.13;;;;;;;;;;4993378;28;20435;-74
2022/11/13 02:11:31;;;;;;;34.72;26.88;;;;;;;;;;5014953;28;20047;-74
2022/11/13 02:13:57;;;;;;;34.88;27.05;;;;;;;;;;5013662;28;20639;-73
2022/11/13 02:16:23;;;;;;;39.50;28.42;;;;;;;;;;5037285;28;21581;-73
2022/11/13 02:18:50;;;;;;;33.13;27.35;;;;;;;;;;5030810;28;20036;-74
2022/11/13 02:21:35;;;;;;;35.45;27.08;;;;;;;;;;5024050;28;20588;-73
2022/11/13 02:24:20;;;;;;;38.88;28.55;;;;;;;;;;5013947;28;20052;-73
2022/11/13 02:26:47;;;;;;;40.13;27.67;;;;;;;;;;5014650;28;20040;-73
2022/11/13 02:29:13;;;;;;;38.55;29.60;;;;;;;;;;4999227;28;20056;-74
2022/11/13 02:31:39;;;;;;;36.25;27.48;;;;;;;;;;5008971;28;20114;-73
2022/11/13 02:34:05;;;;;;;35.03;26.45;;;;;;;;;;5008427;28;20036;-73
2022/11/13 02:36:31;;;;;;;34.13;25.67;;;;;;;;;;5010384;28;20060;-73
2022/11/13 02:39:03;;;;;;;33.78;25.48;;;;;;;;;;4990182;28;20126;-73
2022/11/13 02:41:30;;;;;;;35.63;26.15;;;;;;;;;;4994969;28;21130;-73
2022/11/13 02:43:56;;;;;;;30.35;23.35;;;;;;;;;;4990475;28;20059;-73
2022/11/13 02:46:22;;;;;;;29.27;24.55;;;;;;;;;;4998800;28;20989;-73
2022/11/13 02:48:48;;;;;;;28.95;23.63;;;;;;;;;;5011695;28;20041;-74
2022/11/13 02:51:14;;;;;;;28.40;24.33;;;;;;;;;;5002892;28;20047;-73
2022/11/13 02:53:40;;;;;;;38.80;23.88;;;;;;;;;;5011889;28;20230;-74
2022/11/13 02:56:06;;;;;;;31.60;24.05;;;;;;;;;;4989069;28;20045;-73
2022/11/13 02:58:32;;;;;;;31.13;24.58;;;;;;;;;;4993737;28;20048;-74
2022/11/13 03:01:01;;;;;;;33.42;24.30;;;;;;;;;;5005601;28;20049;-73
2022/11/13 03:03:27;;;;;;;30.80;24.85;;;;;;;;;;5026420;28;20917;-74
2022/11/13 03:05:53;;;;;;;34.42;24.88;;;;;;;;;;5007813;28;20148;-74
2022/11/13 03:08:19;;;;;;;34.47;24.50;;;;;;;;;;4990434;28;20087;-74
2022/11/13 03:10:45;;;;;;;35.83;25.00;;;;;;;;;;4986189;28;20041;-73
2022/11/13 03:13:11;;;;;;;30.58;24.88;;;;;;;;;;4995688;28;20053;-74
2022/11/13 03:15:38;;;;;;;32.58;23.70;;;;;;;;;;5009987;28;20041;-74
2022/11/13 03:18:05;;;;;;;34.30;24.60;;;;;;;;;;5011161;28;20055;-74
2022/11/13 03:20:31;;;;;;;34.40;25.80;;;;;;;;;;5014664;28;20072;-75
2022/11/13 03:22:57;;;;;;;33.38;25.55;;;;;;;;;;5007395;28;20049;-74
2022/11/13 03:25:23;;;;;;;33.00;25.55;;;;;;;;;;4990913;28;20423;-74
2022/11/13 03:27:49;;;;;;;36.13;26.30;;;;;;;;;;5009044;28;20084;-73
2022/11/13 03:30:15;;;;;;;30.50;24.02;;;;;;;;;;4996032;28;20044;-74
2022/11/13 03:32:44;;;;;;;32.25;24.67;;;;;;;;;;4993576;28;20164;-74
2022/11/13 03:35:10;;;;;;;31.80;24.35;;;;;;;;;;5013689;28;20510;-73
2022/11/13 03:37:36;;;;;;;33.28;23.88;;;;;;;;;;4996299;28;20049;-74
2022/11/13 03:40:03;;;;;;;39.35;26.33;;;;;;;;;;4988430;28;20053;-75
2022/11/13 03:42:29;;;;;;;33.97;24.63;;;;;;;;;;5011286;28;20047;-74
2022/11/13 03:44:55;;;;;;;34.03;24.23;;;;;;;;;;5007232;28;21447;-74
2022/11/13 03:47:21;;;;;;;36.97;23.77;;;;;;;;;;5032702;28;20037;-74
2022/11/13 03:49:47;;;;;;;30.48;22.90;;;;;;;;;;5015922;28;20140;-73
2022/11/13 03:52:13;;;;;;;29.80;24.35;;;;;;;;;;4970325;28;20080;-73
2022/11/13 03:54:39;;;;;;;29.02;23.10;;;;;;;;;;4977187;28;20052;-74
2022/11/13 03:57:05;;;;;;;32.28;22.75;;;;;;;;;;5010352;28;20052;-72
2022/11/13 03:59:32;;;;;;;31.70;23.10;;;;;;;;;;4996728;28;20048;-73
2022/11/13 04:01:58;;;;;;;31.77;22.98;;;;;;;;;;5006417;28;20048;-72
2022/11/13 04:04:24;;;;;;;29.63;23.17;;;;;;;;;;4992717;28;20045;-73
2022/11/13 04:06:50;;;;;;;28.58;22.02;;;;;;;;;;5006634;28;20033;-73
2022/11/13 04:09:16;;;;;;;27.40;21.98;;;;;;;;;;5013620;28;20045;-73
2022/11/13 04:11:45;;;;;;;29.55;22.27;;;;;;;;;;5012989;28;20132;-74
2022/11/13 04:14:11;;;;;;;32.90;22.23;;;;;;;;;;5015388;28;20044;-74
2022/11/13 04:16:37;;;;;;;28.08;21.98;;;;;;;;;;4997307;28;20053;-73
2022/11/13 04:19:06;;;;;;;29.33;22.52;;;;;;;;;;4995683;28;20166;-72
2022/11/13 04:21:32;;;;;;;28.23;22.55;;;;;;;;;;4991859;28;20044;-73
2022/11/13 04:23:58;;;;;;;28.88;22.23;;;;;;;;;;4993579;28;20077;-73
2022/11/13 04:26:25;;;;;;;26.70;22.17;;;;;;;;;;5011173;28;21531;-73
2022/11/13 04:28:51;;;;;;;28.98;22.88;;;;;;;;;;4992821;28;20068;-73
2022/11/13 04:31:17;;;;;;;29.95;23.27;;;;;;;;;;4989668;28;20163;-72
2022/11/13 04:33:43;;;;;;;30.20;22.27;;;;;;;;;;4987779;28;20045;-73
2022/11/13 04:36:09;;;;;;;26.98;22.20;;;;;;;;;;4993415;28;20061;-73
2022/11/13 04:38:35;;;;;;;27.90;22.15;;;;;;;;;;5009813;28;20049;-73
2022/11/13 04:43:46;;;;;;;28.25;22.48;;;;;;;;;;5000059;28;20562;-73
2022/11/13 04:46:12;;;;;;;29.17;22.17;;;;;;;;;;4985000;28;20565;-75
2022/11/13 04:48:38;;;;;;;27.30;22.10;;;;;;;;;;5014640;28;20037;-74
2022/11/13 04:51:04;;;;;;;30.42;21.35;;;;;;;;;;4994529;28;20232;-74
2022/11/13 04:53:30;;;;;;;29.67;22.27;;;;;;;;;;4994697;28;20048;-75
2022/11/13 04:55:57;;;;;;;32.22;22.35;;;;;;;;;;5011490;28;21732;-75
2022/11/13 04:58:23;;;;;;;29.40;22.98;;;;;;;;;;4994918;28;20138;-75
2022/11/13 05:00:49;;;;;;;30.90;22.90;;;;;;;;;;4992868;28;20095;-74
2022/11/13 05:03:15;;;;;;;31.55;21.67;;;;;;;;;;5011926;28;20888;-74
2022/11/13 05:05:41;;;;;;;28.48;22.50;;;;;;;;;;4996620;28;20051;-75
2022/11/13 05:08:07;;;;;;;30.98;22.25;;;;;;;;;;4992562;28;20044;-75
2022/11/13 05:10:33;;;;;;;31.80;23.08;;;;;;;;;;4977681;28;20041;-74
2022/11/13 05:12:59;;;;;;;29.35;22.75;;;;;;;;;;4990506;28;22221;-75
2022/11/13 05:15:25;;;;;;;31.90;22.42;;;;;;;;;;5007094;28;20110;-74
2022/11/13 05:17:53;;;;;;;31.88;23.70;;;;;;;;;;4988113;28;20037;-75
2022/11/13 05:20:19;;;;;;;36.45;24.90;;;;;;;;;;5010964;28;20064;-74
2022/11/13 05:22:45;;;;;;;31.63;23.33;;;;;;;;;;5010981;28;20037;-74
2022/11/13 05:25:11;;;;;;;32.80;23.75;;;;;;;;;;4993436;28;20045;-74
2022/11/13 05:27:37;;;;;;;30.65;23.67;;;;;;;;;;4992427;28;20106;-74
2022/11/13 05:30:04;;;;;;;34.00;23.40;;;;;;;;;;5010649;28;20045;-75
2022/11/13 05:32:31;;;;;;;31.35;23.63;;;;;;;;;;5042226;28;20033;-75
2022/11/13 05:34:57;;;;;;;30.88;24.05;;;;;;;;;;5012088;28;20040;-75
2022/11/13 05:37:23;;;;;;;30.58;22.63;;;;;;;;;;5012114;28;20087;-75
2022/11/13 05:39:50;;;;;;;33.40;23.55;;;;;;;;;;5027229;28;20955;-75
2022/11/13 05:42:16;;;;;;;32.85;23.88;;;;;;;;;;4988856;28;20084;-75
2022/11/13 05:44:42;;;;;;;32.72;22.60;;;;;;;;;;4988831;28;20392;-75
2022/11/13 05:47:08;;;;;;;32.70;23.00;;;;;;;;;;5005869;28;20033;-75
2022/11/13 05:49:34;;;;;;;32.42;22.88;;;;;;;;;;5012060;28;20132;-75
2022/11/13 05:52:00;;;;;;;34.33;23.27;;;;;;;;;;4994821;28;20041;-75
2022/11/13 05:54:26;;;;;;;32.25;23.00;;;;;;;;;;4993550;28;21260;-75
2022/11/13 05:56:52;;;;;;;28.77;22.75;;;;;;;;;;5012150;28;20563;-75
2022/11/13 05:59:18;;;;;;;30.48;22.48;;;;;;;;;;4995970;28;20049;-75
2022/11/13 06:01:44;;;;;;;29.08;22.23;;;;;;;;;;5004746;28;20095;-75
2022/11/13 06:04:11;;;;;;;30.75;22.83;;;;;;;;;;4995399;28;22358;-74
2022/11/13 06:06:37;;;;;;;29.27;21.95;;;;;;;;;;4984133;28;20048;-74
2022/11/13 06:09:04;;;;;;;30.85;22.30;;;;;;;;;;5011275;28;22088;-74
2022/11/13 06:11:30;;;;;;;31.00;22.75;;;;;;;;;;5011603;28;20144;-73
2022/11/13 06:13:57;;;;;;;31.08;22.08;;;;;;;;;;5006909;28;20127;-73
2022/11/13 06:16:24;;;;;;;32.47;21.27;;;;;;;;;;5013961;28;20041;-73
2022/11/13 06:18:53;;;;;;;28.02;21.65;;;;;;;;;;4994211;28;20143;-74
2022/11/13 06:21:20;;;;;;;29.88;21.63;;;;;;;;;;5008026;28;21849;-74
2022/11/13 06:23:47;;;;;;;28.63;21.35;;;;;;;;;;4990887;28;20049;-74
2022/11/13 06:26:13;;;;;;;27.80;20.95;;;;;;;;;;5006550;28;20038;-74
2022/11/13 06:28:40;;;;;;;29.45;22.27;;;;;;;;;;5009372;28;20063;-73
2022/11/13 06:31:07;;;;;;;33.03;22.20;;;;;;;;;;4989749;28;20041;-74
2022/11/13 06:33:34;;;;;;;32.03;22.23;;;;;;;;;;5009146;28;20045;-74
2022/11/13 06:36:01;;;;;;;30.20;22.95;;;;;;;;;;5010296;28;21020;-74
2022/11/13 06:38:29;;;;;;;32.15;21.85;;;;;;;;;;4991285;28;20045;-74
2022/11/13 06:40:56;;;;;;;30.88;22.83;;;;;;;;;;4994214;28;20040;-74
2022/11/13 06:43:25;;;;;;;30.30;21.67;;;;;;;;;;5005616;28;20081;-74
2022/11/13 06:45:51;;;;;;;30.45;22.63;;;;;;;;;;4984282;28;20041;-74
2022/11/13 06:48:17;;;;;;;28.95;21.08;;;;;;;;;;5008726;28;20361;-72
2022/11/13 06:50:50;;;;;;;31.13;23.20;;;;;;;;;;4984500;28;20118;-73
2022/11/13 06:53:16;;;;;;;30.75;23.00;;;;;;;;;;5011956;28;20053;-73
2022/11/13 06:55:43;;;;;;;31.67;22.33;;;;;;;;;;4990689;28;20071;-74
2022/11/13 06:58:09;;;;;;;31.00;22.50;;;;;;;;;;5013993;28;20067;-74
2022/11/13 07:00:35;;;;;;;32.83;23.45;;;;;;;;;;5000585;28;20682;-75
2022/11/13 07:03:02;;;;;;;31.40;22.38;;;;;;;;;;5025339;28;20045;-74
2022/11/13 07:05:28;;;;;;;30.33;22.52;;;;;;;;;;5030081;28;20107;-74
2022/11/13 07:07:54;;;;;;;32.65;23.40;;;;;;;;;;5010665;28;20059;-74
2022/11/13 07:10:20;;;;;;;32.13;23.27;;;;;;;;;;5046937;28;20037;-74
2022/11/13 07:12:46;;;;;;;32.80;24.17;;;;;;;;;;5012697;28;20733;-75
2022/11/13 07:15:12;;;;;;;34.33;23.95;;;;;;;;;;5028650;28;20045;-74
2022/11/13 07:17:38;;;;;;;33.08;24.48;;;;;;;;;;5004457;28;20469;-75
2022/11/13 07:20:04;;;;;;;31.33;23.67;;;;;;;;;;5011849;28;20056;-75
2022/11/13 07:22:30;;;;;;;31.15;24.08;;;;;;;;;;5018948;28;20081;-74
2022/11/13 07:24:57;;;;;;;33.78;23.27;;;;;;;;;;5021851;28;20048;-74
2022/11/13 07:27:23;;;;;;;36.97;23.73;;;;;;;;;;4998125;28;20856;-75
2022/11/13 07:29:50;;;;;;;30.70;22.83;;;;;;;;;;5019341;28;20037;-74
2022/11/13 07:32:18;;;;;;;32.78;23.77;;;;;;;;;;5005485;28;20045;-74
2022/11/13 07:34:45;;;;;;;31.85;22.80;;;;;;;;;;5004672;28;20074;-74
2022/11/13 07:37:11;;;;;;;30.05;22.65;;;;;;;;;;5013259;28;20050;-74
2022/11/13 07:39:37;;;;;;;27.77;22.15;;;;;;;;;;5013371;28;20076;-75
2022/11/13 07:42:03;;;;;;;29.98;22.50;;;;;;;;;;4995901;28;20037;-74
2022/11/13 07:44:29;;;;;;;29.98;22.48;;;;;;;;;;4996751;28;20191;-74
2022/11/13 07:46:55;;;;;;;30.90;21.80;;;;;;;;;;4994303;28;20177;-75
2022/11/13 07:49:21;;;;;;;35.70;22.52;;;;;;;;;;5007612;28;20050;-81
2022/11/13 07:51:47;;;;;;;26.70;20.42;;;;;;;;;;5010536;28;21326;-81
2022/11/13 07:54:13;;;;;;;29.67;21.67;;;;;;;;;;5027157;28;20080;-83
2022/11/13 07:56:39;;;;;;;26.50;20.33;;;;;;;;;;5021540;28;20045;-81
2022/11/13 07:59:06;;;;;;;28.58;21.77;;;;;;;;;;5008010;28;20041;-82
2022/11/13 08:01:32;;;;;;;27.63;20.00;;;;;;;;;;5010558;28;20057;-82
2022/11/13 08:03:58;;;;;;;27.63;21.08;;;;;;;;;;5029406;28;20048;-82
2022/11/13 08:06:26;;;;;;;25.35;19.30;;;;;;;;;;5032621;28;20041;-83
2022/11/13 08:08:53;;;;;;;31.38;21.42;;;;;;;;;;5010145;28;20033;-83
2022/11/13 08:11:19;;;;;;;27.67;21.20;;;;;;;;;;5014623;28;20045;-83
2022/11/13 08:13:45;;;;;;;25.40;19.98;;;;;;;;;;5041991;28;20123;-83
2022/11/13 08:16:11;;;;;;;25.17;19.85;;;;;;;;;;5036901;28;20112;-83
2022/11/13 08:18:37;;;;;;;27.90;19.75;;;;;;;;;;5028899;28;20048;-83
2022/11/13 08:21:04;;;;;;;25.38;18.77;;;;;;;;;;5025865;28;20052;-83
2022/11/13 08:23:31;;;;;;;27.02;18.52;;;;;;;;;;5024253;28;20045;-82
2022/11/13 08:25:57;;;;;;;23.73;17.67;;;;;;;;;;4999806;28;20067;-82
2022/11/13 08:28:23;;;;;;;24.85;18.30;;;;;;;;;;5000721;28;20513;-82
2022/11/13 08:30:50;;;;;;;26.77;18.17;;;;;;;;;;5018565;28;20686;-82
2022/11/13 08:33:16;;;;;;;22.67;17.45;;;;;;;;;;5020956;28;20092;-81
2022/11/13 08:35:42;;;;;;;25.45;17.48;;;;;;;;;;5008152;28;20037;-80
2022/11/13 08:38:08;;;;;;;23.52;17.60;;;;;;;;;;4991019;28;20150;-74
2022/11/13 08:40:37;;;;;;;23.08;17.73;;;;;;;;;;4991190;28;20492;-74
2022/11/13 08:43:04;;;;;;;22.52;16.98;;;;;;;;;;4992167;28;20037;-75
2022/11/13 08:45:30;;;;;;;25.83;18.45;;;;;;;;;;5017856;28;20152;-75
2022/11/13 08:48:00;;;;;;;28.77;17.38;;;;;;;;;;5016715;28;20052;-74
2022/11/13 08:50:27;;;;;;;22.83;16.88;;;;;;;;;;5036395;28;20064;-75
2022/11/13 08:52:54;;;;;;;22.30;17.60;;;;;;;;;;5018291;28;20056;-82
2022/11/13 08:55:24;;;;;;;21.52;17.45;;;;;;;;;;5017773;28;20045;-82
2022/11/13 08:57:50;;;;;;;22.95;17.33;;;;;;;;;;5024091;28;20044;-82
2022/11/13 09:00:17;;;;;;;24.85;18.13;;;;;;;;;;5010044;28;20475;-83
2022/11/13 09:02:43;;;;;;;21.60;16.45;;;;;;;;;;5020387;28;20079;-80
2022/11/13 09:05:10;;;;;;;24.95;16.50;;;;;;;;;;5018499;28;20040;-81
2022/11/13 09:07:36;;;;;;;28.20;18.20;;;;;;;;;;4988878;28;20939;-81
2022/11/13 09:10:02;;;;;;;20.67;15.85;;;;;;;;;;5005437;28;20114;-82
2022/11/13 09:12:29;;;;;;;19.98;15.98;;;;;;;;;;5018215;28;20546;-82
2022/11/13 09:14:55;;;;;;;20.40;16.50;;;;;;;;;;5019178;28;20041;-83
2022/11/13 09:17:21;;;;;;;18.85;15.65;;;;;;;;;;4978961;28;20110;-81
2022/11/13 09:19:47;;;;;;;20.80;15.13;;;;;;;;;;5003098;28;20472;-81
2022/11/13 09:22:13;;;;;;;21.30;15.60;;;;;;;;;;5019052;28;20033;-82
2022/11/13 09:24:39;;;;;;;19.85;15.60;;;;;;;;;;5007452;28;20045;-82
2022/11/13 09:27:05;;;;;;;19.95;15.57;;;;;;;;;;5008251;28;20619;-82
2022/11/13 09:29:32;;;;;;;18.75;14.43;;;;;;;;;;5007629;28;20135;-82
2022/11/13 09:31:58;;;;;;;21.27;14.65;;;;;;;;;;5024387;28;20400;-84
2022/11/13 09:34:26;;;;;;;17.92;13.60;;;;;;;;;;5026668;28;20041;-81
2022/11/13 09:36:52;;;;;;;18.75;14.27;;;;;;;;;;5024467;28;20057;-80
2022/11/13 09:39:18;;;;;;;21.42;15.65;;;;;;;;;;5043241;28;20509;-82
2022/11/13 09:41:50;;;;;;;19.50;13.52;;;;;;;;;;5013914;28;20049;-82
2022/11/13 09:44:22;;;;;;;19.02;14.48;;;;;;;;;;5029802;28;20555;-82
2022/11/13 09:46:51;;;;;;;16.27;13.82;;;;;;;;;;5033626;28;20067;-81
2022/11/13 09:49:21;;;;;;;23.30;17.23;;;;;;;;;;5034326;28;20044;-83
2022/11/13 09:51:55;;;;;;;20.08;15.20;;;;;;;;;;5035339;28;20787;-83
2022/11/13 09:54:22;;;;;;;18.00;14.18;;;;;;;;;;5016095;28;20040;-82
2022/11/13 09:57:07;;;;;;;19.90;14.90;;;;;;;;;;5018212;28;20044;-81
2022/11/13 09:59:36;;;;;;;18.13;12.98;;;;;;;;;;5006557;28;20285;-82
2022/11/13 10:02:21;;;;;;;19.45;14.60;;;;;;;;;;5015585;28;20411;-82
2022/11/13 10:04:47;;;;;;;19.52;14.27;;;;;;;;;;5017006;28;20099;-83
2022/11/13 10:07:21;;;;;;;19.15;15.38;;;;;;;;;;5019051;28;20059;-82
2022/11/13 10:09:51;;;;;;;17.92;14.32;;;;;;;;;;5023354;28;20044;-83
2022/11/13 10:12:17;;;;;;;16.85;14.27;;;;;;;;;;5035993;28;20040;-83
2022/11/13 10:14:45;;;;;;;16.90;13.43;;;;;;;;;;5012319;28;21536;-82
2022/11/13 10:17:31;;;;;;;18.30;14.38;;;;;;;;;;5043542;28;20110;-83
2022/11/13 10:19:59;;;;;;;15.18;11.75;;;;;;;;;;5043580;28;20056;-84
2022/11/13 10:22:28;;;;;;;13.95;12.45;;;;;;;;;;5052359;28;20037;-83
2022/11/13 10:24:58;;;;;;;16.35;11.80;;;;;;;;;;5047075;28;20032;-83
2022/11/13 10:27:24;;;;;;;14.75;11.65;;;;;;;;;;5030002;28;20033;-84
2022/11/13 10:29:50;;;;;;;16.60;12.23;;;;;;;;;;5010600;28;20085;-84
2022/11/13 10:32:19;;;;;;;17.83;12.02;;;;;;;;;;5043028;28;20167;-84
2022/11/13 10:34:49;;;;;;;14.93;11.55;;;;;;;;;;5035212;28;20040;-83
2022/11/13 10:37:32;;;;;;;16.52;13.25;;;;;;;;;;5019900;28;20076;-84
2022/11/13 10:40:01;;;;;;;15.77;11.68;;;;;;;;;;5047410;28;20053;-81
2022/11/13 10:42:29;;;;;;;26.80;18.90;;;;;;;;;;5026827;28;20126;-80
2022/11/13 10:44:59;;;;;;;16.63;11.52;;;;;;;;;;5012929;28;20041;-82
2022/11/13 10:47:27;;;;;;;15.30;12.30;;;;;;;;;;5014897;28;20055;-83
2022/11/13 10:49:54;;;;;;;14.77;11.88;;;;;;;;;;5017771;28;21480;-82
2022/11/13 10:52:28;;;;;;;14.20;11.50;;;;;;;;;;5013361;28;20045;-83
2022/11/13 10:55:04;;;;;;;16.67;11.25;;;;;;;;;;5012691;28;20060;-84
2022/11/13 10:57:34;;;;;;;14.25;11.60;;;;;;;;;;5019305;28;20052;-83
2022/11/13 11:00:01;;;;;;;12.98;11.57;;;;;;;;;;5051639;28;20047;-77
2022/11/13 11:02:27;;;;;;;14.77;11.38;;;;;;;;;;5017479;28;20083;-74
2022/11/13 11:05:12;;;;;;;15.98;11.82;;;;;;;;;;4996448;28;20060;-74
2022/11/13 11:07:41;;;;;;;13.13;11.25;;;;;;;;;;5029941;28;20044;-74
2022/11/13 11:10:20;;;;;;;14.77;11.43;;;;;;;;;;5015273;28;20446;-74
2022/11/13 11:12:57;;;;;;;16.30;12.43;;;;;;;;;;5013891;28;20526;-74
2022/11/13 11:15:39;;;;;;;16.13;11.27;;;;;;;;;;5016031;28;20139;-75
2022/11/13 11:18:24;;;;;;;14.45;11.95;;;;;;;;;;5031432;28;20044;-74
2022/11/13 11:20:50;;;;;;;12.27;10.88;;;;;;;;;;5032635;28;20134;-75
2022/11/13 11:23:35;;;;;;;12.27;10.95;;;;;;;;;;5028688;28;20053;-75
2022/11/13 11:26:05;;;;;;;14.27;10.63;;;;;;;;;;5011997;28;20053;-75
2022/11/13 11:28:37;;;;;;;10.63;9.27;;;;;;;;;;5012396;28;20048;-73
2022/11/13 11:31:06;;;;;;;13.48;11.10;;;;;;;;;;5018741;28;20599;-74
2022/11/13 11:33:33;;;;;;;14.23;11.15;;;;;;;;;;5013800;28;20040;-74
2022/11/13 11:36:15;;;;;;;15.98;10.82;;;;;;;;;;5034164;28;20040;-74
2022/11/13 11:38:41;;;;;;;14.75;10.77;;;;;;;;;;5012352;28;20057;-74
2022/11/13 11:41:14;;;;;;;12.18;10.57;;;;;;;;;;5013777;28;20474;-74
2022/11/13 11:44:02;;;;;;;12.38;10.82;;;;;;;;;;4994729;28;20059;-73
2022/11/13 11:46:29;;;;;;;16.88;11.85;;;;;;;;;;5000907;28;20041;-73
2022/11/13 11:49:00;;;;;;;15.15;11.75;;;;;;;;;;5009042;28;20045;-73
2022/11/13 11:51:38;;;;;;;15.10;10.98;;;;;;;;;;5008085;28;20124;-73
2022/11/13 11:54:07;;;;;;;12.50;10.95;;;;;;;;;;5013120;28;20083;-75
2022/11/13 11:56:35;;;;;;;13.48;10.20;;;;;;;;;;5014168;28;20055;-74
2022/11/13 11:59:08;;;;;;;13.50;10.73;;;;;;;;;;5014632;28;20037;-74
2022/11/13 12:01:53;;;;;;;12.95;10.60;;;;;;;;;;5011616;28;20077;-74
2022/11/13 12:04:38;;;;;;;12.57;10.18;;;;;;;;;;5028028;28;20622;-74
2022/11/13 12:07:10;;;;;;;13.40;10.70;;;;;;;;;;4994607;28;20094;-74
2022/11/13 12:09:40;;;;;;;10.68;9.45;;;;;;;;;;5007789;28;20045;-75
2022/11/13 12:12:19;;;;;;;11.48;10.27;;;;;;;;;;5006175;28;20075;-75
2022/11/13 12:14:57;;;;;;;11.60;9.65;;;;;;;;;;5007892;28;21426;-73
2022/11/13 12:17:26;;;;;;;12.30;10.18;;;;;;;;;;5012563;28;20148;-75
2022/11/13 12:19:55;;;;;;;10.88;9.63;;;;;;;;;;4984218;28;20442;-74
2022/11/13 12:22:21;;;;;;;10.55;9.32;;;;;;;;;;5004185;28;20116;-75
2022/11/13 12:24:48;;;;;;;11.60;9.57;;;;;;;;;;4995199;28;20060;-75
2022/11/13 12:27:32;;;;;;;10.80;8.77;;;;;;;;;;4989783;28;20143;-75
2022/11/13 12:30:07;;;;;;;12.20;8.82;;;;;;;;;;5008887;28;21039;-75
2022/11/13 12:32:57;;;;;;;11.60;9.75;;;;;;;;;;4999868;28;20052;-74
2022/11/13 12:35:24;;;;;;;10.07;9.05;;;;;;;;;;4988351;28;20116;-74
2022/11/13 12:37:56;;;;;;;13.57;9.20;;;;;;;;;;5007187;28;20215;-75
2022/11/13 12:40:28;;;;;;;11.75;9.27;;;;;;;;;;5004680;28;20055;-74
2022/11/13 12:43:13;;;;;;;12.93;9.73;;;;;;;;;;5000177;28;20053;-75
2022/11/13 12:45:45;;;;;;;11.80;9.98;;;;;;;;;;5009111;28;20077;-75
2022/11/13 12:48:14;;;;;;;13.30;9.68;;;;;;;;;;4995927;28;20048;-74
2022/11/13 12:50:40;;;;;;;11.88;10.65;;;;;;;;;;5006571;28;20417;-74
2022/11/13 12:53:08;;;;;;;12.68;11.38;;;;;;;;;;5009623;28;20084;-73
2022/11/13 12:55:35;;;;;;;17.08;10.82;;;;;;;;;;4998552;28;20037;-74
2022/11/13 12:58:10;;;;;;;12.55;10.73;;;;;;;;;;5012512;28;20056;-74
2022/11/13 13:00:38;;;;;;;11.18;9.88;;;;;;;;;;5021230;28;20079;-86
2022/11/13 13:03:08;;;;;;;14.23;11.23;;;;;;;;;;5034809;28;20037;-89
2022/11/13 13:05:47;;;;;;;16.80;11.95;;;;;;;;;;5014172;28;20060;-88
2022/11/13 13:08:24;;;;;;;14.15;10.98;;;;;;;;;;5014478;28;20463;-89
2022/11/13 13:11:10;;;;;;;14.25;11.38;;;;;;;;;;5028039;28;20047;-87
2022/11/13 13:13:40;;;;;;;16.15;11.50;;;;;;;;;;5045806;28;20664;-86
2022/11/13 13:16:07;;;;;;;13.77;10.77;;;;;;;;;;5012472;28;20345;-86
2022/11/13 13:18:39;;;;;;;13.30;10.73;;;;;;;;;;5017684;28;20168;-87
2022/11/13 13:21:05;;;;;;;13.70;11.05;;;;;;;;;;5014323;28;20049;-85
2022/11/13 13:23:36;;;;;;;16.55;12.40;;;;;;;;;;5020628;28;20041;-87
2022/11/13 13:26:16;;;;;;;16.63;11.57;;;;;;;;;;5024224;28;20135;-88
2022/11/13 13:28:47;;;;;;;12.45;11.02;;;;;;;;;;5045188;28;20044;-87
2022/11/13 13:31:18;;;;;;;15.27;11.38;;;;;;;;;;5029198;28;20177;-85
2022/11/13 13:33:44;;;;;;;13.20;11.00;;;;;;;;;;5025692;28;20052;-87
2022/11/13 13:36:25;;;;;;;14.23;12.20;;;;;;;;;;5012123;28;20041;-87
2022/11/13 13:38:52;;;;;;;14.50;11.50;;;;;;;;;;5027482;28;20312;-87
2022/11/13 13:41:41;;;;;;;16.88;12.98;;;;;;;;;;5013081;28;20038;-87
2022/11/13 13:44:13;;;;;;;15.48;12.18;;;;;;;;;;5009436;28;20041;-87
2022/11/13 13:46:40;;;;;;;15.93;11.85;;;;;;;;;;4996477;28;20037;-87
2022/11/13 13:49:10;;;;;;;16.58;13.55;;;;;;;;;;5008668;28;20037;-86
2022/11/13 13:51:40;;;;;;;13.95;11.95;;;;;;;;;;4993628;28;20617;-87
2022/11/13 13:54:07;;;;;;;17.30;13.93;;;;;;;;;;4994300;28;20092;-87
2022/11/13 13:56:39;;;;;;;15.35;12.50;;;;;;;;;;5015090;28;20115;-88
2022/11/13 13:59:05;;;;;;;21.02;17.27;;;;;;;;;;5017450;28;20052;-86
2022/11/13 14:01:33;;;;;;;16.77;14.35;;;;;;;;;;4995279;28;20041;-84
2022/11/13 14:04:12;;;;;;;21.83;14.55;;;;;;;;;;4995351;28;20057;-86
2022/11/13 14:06:46;;;;;;;25.42;18.50;;;;;;;;;;5012455;28;20133;-86
2022/11/13 14:09:26;;;;;;;16.42;12.27;;;;;;;;;;5005526;28;20052;-76
2022/11/13 14:12:00;;;;;;;13.45;12.05;;;;;;;;;;4995136;28;20041;-77
2022/11/13 14:14:26;;;;;;;17.83;12.10;;;;;;;;;;4972289;28;20066;-78
2022/11/13 14:16:54;;;;;;;21.10;15.07;;;;;;;;;;4999588;28;20099;-78
2022/11/13 14:19:21;;;;;;;17.58;13.85;;;;;;;;;;4979611;28;20044;-78
2022/11/13 14:21:48;;;;;;;18.50;12.23;;;;;;;;;;5003158;28;20041;-80
2022/11/13 14:24:18;;;;;;;13.65;11.05;;;;;;;;;;4987311;28;20059;-78
2022/11/13 14:26:45;;;;;;;15.43;11.90;;;;;;;;;;5016525;28;20048;-79
2022/11/13 14:29:19;;;;;;;16.50;12.63;;;;;;;;;;4991139;28;20114;-78